createdAt,value
2019-01-25T00:00:43.424Z,17.57
2019-01-25T00:03:10.603Z,16.77
2019-01-25T00:05:37.385Z,15.75
2019-01-25T00:08:04.469Z,15.88
2019-01-25T00:10:31.736Z,15.53
2019-01-25T00:12:58.873Z,15.90
2019-01-25T00:15:25.549Z,16.52
2019-01-25T00:17:52.205Z,15.70
2019-01-25T00:20:19.399Z,17.17
2019-01-25T00:22:46.551Z,16.87
2019-01-25T00:25:13.201Z,16.00
2019-01-25T00:27:40.338Z,17.20
2019-01-25T00:30:07.096Z,17.57
2019-01-25T00:32:34.242Z,17.17
2019-01-25T00:35:01.422Z,17.05
2019-01-25T00:37:28.532Z,16.40
2019-01-25T00:39:55.638Z,17.27
2019-01-25T00:42:22.741Z,16.95
2019-01-25T00:44:49.883Z,17.60
2019-01-25T00:47:16.928Z,17.45
2019-01-25T00:49:44.082Z,16.27
2019-01-25T00:52:10.732Z,17.30
2019-01-25T00:54:37.415Z,17.55
2019-01-25T00:57:04.142Z,16.67
2019-01-25T00:59:30.901Z,16.67
2019-01-25T01:01:57.753Z,17.00
2019-01-25T01:04:24.824Z,16.52
2019-01-25T01:06:51.993Z,17.02
2019-01-25T01:09:19.129Z,16.12
2019-01-25T01:11:45.842Z,17.07
2019-01-25T01:14:12.505Z,18.00
2019-01-25T01:16:39.166Z,16.67
2019-01-25T01:19:06.297Z,16.87
2019-01-25T01:21:33.347Z,18.20
2019-01-25T01:24:00.397Z,16.57
2019-01-25T01:26:27.645Z,16.30
2019-01-25T01:28:54.293Z,17.05
2019-01-25T01:31:21.066Z,18.00
2019-01-25T01:33:47.775Z,16.75
2019-01-25T01:36:14.549Z,18.35
2019-01-25T01:38:41.201Z,18.20
2019-01-25T01:41:08.278Z,17.10
2019-01-25T01:43:35.454Z,16.35
2019-01-25T01:46:02.491Z,16.87
2019-01-25T01:48:29.248Z,16.90
2019-01-25T01:50:56.262Z,16.12
2019-01-25T01:53:22.963Z,17.40
2019-01-25T01:55:49.709Z,18.07
2019-01-25T01:58:16.793Z,17.15
2019-01-25T02:00:43.867Z,17.48
2019-01-25T02:03:11.004Z,17.07
2019-01-25T02:05:38.064Z,18.17
2019-01-25T02:08:04.703Z,17.75
2019-01-25T02:10:31.846Z,17.95
2019-01-25T02:12:58.506Z,16.62
2019-01-25T02:15:25.236Z,18.20
2019-01-25T02:17:52.377Z,16.85
2019-01-25T02:20:19.418Z,16.85
2019-01-25T02:22:46.174Z,18.17
2019-01-25T02:25:13.216Z,17.23
2019-01-25T02:27:40.259Z,16.45
2019-01-25T02:30:07.414Z,17.85
2019-01-25T02:32:34.440Z,17.55
2019-01-25T02:35:01.104Z,17.05
2019-01-25T02:37:28.265Z,17.85
2019-01-25T02:39:55.297Z,17.85
2019-01-25T02:42:22.346Z,17.05
2019-01-25T02:44:49.031Z,18.15
2019-01-25T02:47:15.761Z,18.20
2019-01-25T02:49:42.877Z,16.85
2019-01-25T02:52:09.926Z,16.93
2019-01-25T02:54:37.180Z,17.00
2019-01-25T02:57:04.350Z,17.62
2019-01-25T02:59:31.347Z,18.05
2019-01-25T03:01:58.522Z,16.80
2019-01-25T03:04:25.593Z,18.45
2019-01-25T03:06:52.241Z,18.52
2019-01-25T03:09:19.084Z,16.20
2019-01-25T03:11:46.192Z,16.27
2019-01-25T03:14:13.344Z,17.35
2019-01-25T03:16:40.001Z,17.02
2019-01-25T03:19:06.739Z,17.20
2019-01-25T03:21:33.467Z,17.62
2019-01-25T03:24:01.179Z,17.67
2019-01-25T03:26:28.312Z,17.30
2019-01-25T03:28:54.994Z,17.65
2019-01-25T03:31:21.753Z,17.75
2019-01-25T03:33:48.810Z,17.17
2019-01-25T03:36:15.869Z,18.12
2019-01-25T03:38:43.007Z,17.17
2019-01-25T03:41:09.725Z,17.15
2019-01-25T03:43:36.405Z,17.95
2019-01-25T03:46:03.795Z,18.40
2019-01-25T03:48:30.867Z,16.40
2019-01-25T03:50:57.960Z,16.85
2019-01-25T03:53:24.726Z,18.20
2019-01-25T03:55:51.830Z,17.05
2019-01-25T03:58:18.881Z,16.55
2019-01-25T04:00:46.032Z,17.95
2019-01-25T04:03:12.711Z,17.30
2019-01-25T04:05:39.562Z,18.73
2019-01-25T04:08:06.683Z,18.07
2019-01-25T04:10:33.393Z,18.02
2019-01-25T04:13:00.444Z,15.85
2019-01-25T04:15:27.499Z,17.87
2019-01-25T04:17:54.653Z,16.82
2019-01-25T04:20:21.723Z,17.98
2019-01-25T04:22:48.851Z,19.27
2019-01-25T04:25:15.605Z,15.68
2019-01-25T04:27:42.317Z,19.25
2019-01-25T04:30:09.352Z,17.92
2019-01-25T04:32:36.594Z,18.07
2019-01-25T04:35:03.214Z,16.70
2019-01-25T04:37:30.290Z,16.27
2019-01-25T04:39:57.481Z,16.93
2019-01-25T04:42:24.612Z,17.80
2019-01-25T04:44:51.667Z,18.52
2019-01-25T04:47:18.838Z,17.20
2019-01-25T04:49:45.974Z,18.50
2019-01-25T04:52:13.123Z,16.77
2019-01-25T04:54:40.242Z,17.15
2019-01-25T04:57:07.318Z,18.20
2019-01-25T04:59:34.361Z,17.07
2019-01-25T05:02:01.539Z,18.77
2019-01-25T05:04:28.655Z,16.82
2019-01-25T05:06:55.720Z,18.85
2019-01-25T05:09:22.861Z,17.80
2019-01-25T05:11:50.014Z,17.62
2019-01-25T05:14:17.153Z,18.25
2019-01-25T05:16:43.841Z,17.85
2019-01-25T05:19:10.975Z,18.75
2019-01-25T05:21:38.070Z,17.48
2019-01-25T05:24:04.764Z,17.12
2019-01-25T05:26:31.478Z,17.10
2019-01-25T05:28:58.627Z,16.95
2019-01-25T05:31:25.341Z,17.67
2019-01-25T05:33:52.060Z,17.52
2019-01-25T05:36:19.236Z,15.43
2019-01-25T05:38:46.310Z,18.45
2019-01-25T05:41:13.339Z,18.20
2019-01-25T05:43:40.499Z,18.48
2019-01-25T05:46:07.645Z,18.50
2019-01-25T05:48:34.782Z,17.70
2019-01-25T05:51:01.852Z,15.72
2019-01-25T05:53:28.615Z,16.87
2019-01-25T05:55:55.747Z,18.40
2019-01-25T05:58:22.914Z,17.23
2019-01-25T06:00:50.039Z,15.72
2019-01-25T06:03:17.098Z,16.80
2019-01-25T06:05:44.228Z,19.25
2019-01-25T06:08:10.947Z,18.87
2019-01-25T06:10:38.039Z,19.15
2019-01-25T06:13:04.708Z,19.17
2019-01-25T06:15:31.437Z,19.37
2019-01-25T06:17:58.436Z,18.65
2019-01-25T06:20:25.204Z,16.37
2019-01-25T06:22:52.325Z,17.10
2019-01-25T06:25:19.055Z,19.35
2019-01-25T06:27:46.140Z,18.42
2019-01-25T06:30:13.288Z,17.37
2019-01-25T06:32:40.432Z,17.65
2019-01-25T06:35:07.587Z,17.90
2019-01-25T06:37:34.312Z,16.90
2019-01-25T06:40:01.355Z,18.17
2019-01-25T06:42:28.448Z,19.20
2019-01-25T06:44:55.579Z,18.65
2019-01-25T06:47:22.617Z,18.23
2019-01-25T06:49:50.327Z,17.35
2019-01-25T06:52:17.084Z,18.27
2019-01-25T06:54:44.173Z,17.90
2019-01-25T06:57:11.329Z,17.80
2019-01-25T06:59:38.048Z,18.85
2019-01-25T07:02:04.731Z,17.65
2019-01-25T07:04:31.421Z,17.42
2019-01-25T07:06:58.488Z,17.50
2019-01-25T07:09:25.650Z,19.90
2019-01-25T07:11:52.330Z,19.15
2019-01-25T07:14:19.047Z,18.65
2019-01-25T07:16:46.156Z,20.30
2019-01-25T07:19:12.880Z,18.50
2019-01-25T07:21:39.960Z,19.35
2019-01-25T07:24:07.113Z,19.60
2019-01-25T07:26:34.268Z,18.55
2019-01-25T07:29:01.037Z,18.30
2019-01-25T07:31:29.871Z,19.77
2019-01-25T07:33:56.736Z,19.10
2019-01-25T07:36:23.501Z,19.12
2019-01-25T07:38:50.629Z,19.30
2019-01-25T07:41:18.470Z,20.20
2019-01-25T07:43:45.668Z,19.95
2019-01-25T07:46:12.795Z,21.42
2019-01-25T07:48:39.993Z,20.95
2019-01-25T07:51:07.049Z,20.40
2019-01-25T07:53:33.735Z,20.32
2019-01-25T07:56:00.866Z,19.60
2019-01-25T07:58:27.596Z,19.80
2019-01-25T08:00:54.285Z,21.27
2019-01-25T08:03:21.461Z,19.37
2019-01-25T08:05:48.706Z,20.85
2019-01-25T08:08:15.865Z,19.25
2019-01-25T08:10:43.582Z,21.23
2019-01-25T08:13:10.255Z,19.92
2019-01-25T08:15:37.371Z,20.88
2019-01-25T08:18:04.390Z,20.95
2019-01-25T08:20:31.459Z,21.25
2019-01-25T08:22:58.608Z,20.52
2019-01-25T08:25:25.288Z,20.27
2019-01-25T08:27:51.997Z,21.60
2019-01-25T08:30:19.180Z,22.48
2019-01-25T08:32:46.277Z,21.25
2019-01-25T08:35:13.443Z,20.70
2019-01-25T08:37:40.100Z,19.12
2019-01-25T08:40:06.875Z,19.90
2019-01-25T08:42:33.557Z,23.50
2019-01-25T08:45:01.097Z,23.42
2019-01-25T08:47:28.294Z,22.98
2019-01-25T08:49:57.904Z,23.18
2019-01-25T08:52:24.106Z,21.90
2019-01-25T08:54:50.866Z,20.72
2019-01-25T08:57:17.965Z,19.32
2019-01-25T08:59:45.916Z,18.02
2019-01-25T09:02:13.435Z,17.73
2019-01-25T09:04:40.127Z,18.77
2019-01-25T09:07:07.033Z,18.15
2019-01-25T09:09:33.724Z,18.23
2019-01-25T09:12:00.824Z,19.23
2019-01-25T09:14:27.952Z,18.20
2019-01-25T09:16:55.103Z,18.35
2019-01-25T09:19:22.383Z,18.50
2019-01-25T09:21:49.272Z,20.30
2019-01-25T09:24:16.350Z,18.82
2019-01-25T09:26:43.527Z,17.77
2019-01-25T09:29:10.627Z,18.90
2019-01-25T09:31:37.327Z,18.67
2019-01-25T09:34:04.440Z,18.70
2019-01-25T09:36:31.489Z,19.73
2019-01-25T09:38:58.204Z,18.67
2019-01-25T09:41:25.375Z,19.80
2019-01-25T09:43:57.380Z,19.42
2019-01-25T09:46:24.473Z,19.65
2019-01-25T09:48:51.194Z,18.92
2019-01-25T09:51:18.375Z,20.08
2019-01-25T09:53:45.038Z,19.60
2019-01-25T09:56:11.702Z,19.57
2019-01-25T09:58:38.415Z,19.95
2019-01-25T10:01:06.323Z,19.35
2019-01-25T10:03:33.051Z,20.27
2019-01-25T10:06:00.042Z,19.05
2019-01-25T10:08:27.101Z,18.55
2019-01-25T10:10:53.765Z,19.73
2019-01-25T10:13:20.885Z,19.12
2019-01-25T10:15:47.703Z,20.00
2019-01-25T10:18:14.758Z,20.17
2019-01-25T10:20:41.849Z,20.75
2019-01-25T10:23:08.989Z,19.92
2019-01-25T10:31:14.213Z,20.30
2019-01-25T10:33:41.316Z,19.77
2019-01-25T10:36:37.397Z,18.98
2019-01-25T10:39:13.541Z,20.45
2019-01-25T10:47:08.444Z,19.32
2019-01-25T10:49:35.069Z,21.95
2019-01-25T11:11:00.213Z,22.62
2019-01-25T11:11:56.451Z,22.17
2019-01-25T11:13:34.188Z,23.92
2019-01-25T11:16:01.133Z,25.32
2019-01-25T11:18:29.625Z,19.48
2019-01-25T11:23:53.654Z,26.00
2019-01-25T11:27:00.285Z,24.18
2019-01-25T11:32:20.617Z,23.27
2019-01-25T11:33:41.936Z,26.82
2019-01-25T11:34:50.143Z,20.35
2019-01-25T11:37:18.792Z,25.88
2019-01-25T11:39:49.225Z,15.05
2019-01-25T11:42:15.419Z,25.43
2019-01-25T11:44:42.605Z,21.48
2019-01-25T11:47:09.723Z,25.25
2019-01-25T11:49:40.410Z,25.68
2019-01-25T11:54:53.813Z,26.55
2019-01-25T11:57:22.602Z,27.00
2019-01-25T11:59:48.830Z,24.12
2019-01-25T12:02:20.947Z,26.48
2019-01-25T12:04:44.491Z,26.35
2019-01-25T12:07:11.225Z,27.25
2019-01-25T12:09:37.973Z,24.47
2019-01-25T12:12:04.695Z,25.72
2019-01-25T12:14:31.801Z,25.68
2019-01-25T12:19:47.416Z,27.00
2019-01-25T12:22:20.192Z,26.00
2019-01-25T12:24:46.879Z,23.87
2019-01-25T12:27:13.636Z,25.57
2019-01-25T12:29:40.484Z,26.55
2019-01-25T12:32:07.640Z,26.35
2019-01-25T12:34:36.150Z,26.57
2019-01-25T12:37:04.677Z,25.48
2019-01-25T12:39:32.700Z,26.20
2019-01-25T12:41:59.865Z,26.55
2019-01-25T12:44:27.043Z,26.48
2019-01-25T12:46:53.868Z,26.82
2019-01-25T12:49:21.020Z,28.55
2019-01-25T12:51:48.167Z,27.13
2019-01-25T12:54:15.229Z,27.70
2019-01-25T12:56:42.390Z,28.45
2019-01-25T12:59:09.147Z,28.40
2019-01-25T13:01:36.239Z,29.67
2019-01-25T13:04:03.361Z,29.67
2019-01-25T13:06:43.547Z,28.45
2019-01-25T13:09:10.278Z,18.50
2019-01-25T13:11:37.431Z,32.35
2019-01-25T13:14:04.630Z,32.35
2019-01-25T13:16:31.742Z,32.00
2019-01-25T13:18:58.508Z,30.27
2019-01-25T13:21:25.164Z,32.40
2019-01-25T13:23:51.900Z,31.07
2019-01-25T13:26:18.669Z,33.48
2019-01-25T13:28:45.343Z,32.08
2019-01-25T13:31:12.506Z,31.25
2019-01-25T13:33:39.275Z,33.45
2019-01-25T13:36:07.058Z,32.73
2019-01-25T13:38:33.712Z,32.48
2019-01-25T13:41:00.766Z,33.90
2019-01-25T13:43:27.490Z,32.45
2019-01-25T13:45:54.567Z,32.20
2019-01-25T13:48:21.546Z,30.92
2019-01-25T13:50:48.679Z,32.45
2019-01-25T13:53:15.395Z,31.40
2019-01-25T13:55:42.746Z,33.58
2019-01-25T13:58:09.566Z,32.73
2019-01-25T14:00:36.281Z,33.00
2019-01-25T14:03:03.472Z,22.00
2019-01-25T14:05:30.160Z,33.95
2019-01-25T14:07:57.305Z,34.60
2019-01-25T14:10:24.465Z,32.85
2019-01-25T14:12:51.252Z,32.93
2019-01-25T14:15:18.368Z,33.55
2019-01-25T14:17:45.538Z,33.00
2019-01-25T14:20:23.388Z,31.70
2019-01-25T14:26:12.375Z,36.08
2019-01-25T14:30:53.975Z,33.30
2019-01-25T14:33:20.669Z,34.00
2019-01-25T14:35:47.853Z,33.85
2019-01-25T14:38:14.598Z,34.70
2019-01-25T14:40:41.291Z,32.25
2019-01-25T14:43:08.163Z,33.95
2019-01-25T14:45:35.780Z,33.05
2019-01-25T14:48:02.506Z,32.38
2019-01-25T14:50:29.702Z,22.93
2019-01-25T14:52:56.458Z,32.03
2019-01-25T14:55:23.182Z,28.70
2019-01-25T14:57:50.398Z,30.97
2019-01-25T15:00:17.111Z,28.73
2019-01-25T15:02:44.008Z,27.98
2019-01-25T15:05:10.703Z,30.45
2019-01-25T15:07:37.892Z,30.65
2019-01-25T15:10:04.630Z,33.20
2019-01-25T15:12:31.884Z,25.62
2019-01-25T15:14:59.056Z,30.75
2019-01-25T15:17:25.704Z,33.05
2019-01-25T15:19:52.452Z,33.02
2019-01-25T15:22:19.561Z,34.43
2019-01-25T15:24:46.710Z,32.98
2019-01-25T15:27:13.850Z,32.60
2019-01-25T15:29:40.515Z,35.98
2019-01-25T15:32:07.286Z,35.33
2019-01-25T15:34:34.332Z,31.30
2019-01-25T15:37:01.525Z,32.80
2019-01-25T15:39:28.206Z,38.23
2019-01-25T15:41:55.409Z,35.95
2019-01-25T15:44:22.065Z,36.93
2019-01-25T15:46:48.728Z,36.00
2019-01-25T15:49:15.487Z,36.50
2019-01-25T15:51:42.563Z,37.53
2019-01-25T15:54:09.595Z,37.60
2019-01-25T15:56:36.794Z,38.58
2019-01-25T15:59:03.470Z,38.00
2019-01-25T16:01:30.540Z,38.80
2019-01-25T16:03:57.735Z,36.40
2019-01-25T16:06:24.451Z,31.42
2019-01-25T16:08:51.558Z,37.85
2019-01-25T16:11:18.313Z,34.05
2019-01-25T16:13:44.972Z,39.40
2019-01-25T16:16:12.126Z,33.13
2019-01-25T16:18:39.299Z,35.73
2019-01-25T16:21:06.814Z,37.03
2019-01-25T16:23:33.978Z,37.98
2019-01-25T16:26:00.689Z,37.23
2019-01-25T16:28:27.755Z,35.92
2019-01-25T16:30:54.896Z,36.40
2019-01-25T16:33:21.944Z,38.95
2019-01-25T16:35:48.983Z,37.33
2019-01-25T16:38:16.184Z,40.38
2019-01-25T16:40:43.023Z,40.20
2019-01-25T16:43:09.653Z,32.38
2019-01-25T16:45:36.804Z,39.65
2019-01-25T16:48:03.621Z,40.30
2019-01-25T16:50:30.687Z,40.35
2019-01-25T16:52:57.413Z,40.05
2019-01-25T16:55:24.586Z,39.27
2019-01-25T16:57:51.753Z,39.98
2019-01-25T17:00:18.884Z,36.00
2019-01-25T17:02:46.115Z,38.30
2019-01-25T17:05:13.331Z,29.30
2019-01-25T17:07:40.972Z,32.78
2019-01-25T17:10:08.093Z,37.33
2019-01-25T17:12:35.119Z,36.00
2019-01-25T17:15:02.977Z,35.33
2019-01-25T17:17:30.701Z,30.40
2019-01-25T17:19:59.455Z,34.88
2019-01-25T17:22:26.663Z,33.00
2019-01-25T17:24:53.819Z,30.05
2019-01-25T17:27:22.553Z,29.57
2019-01-25T17:29:51.271Z,35.58
2019-01-25T17:32:19.894Z,33.42
2019-01-25T17:34:47.845Z,34.00
2019-01-25T17:37:15.697Z,30.50
2019-01-25T17:39:44.489Z,24.60
2019-01-25T17:42:12.321Z,34.33
2019-01-25T17:44:41.443Z,35.13
2019-01-25T17:47:09.528Z,34.43
2019-01-25T17:49:37.412Z,33.08
2019-01-25T17:52:05.156Z,31.00
2019-01-25T17:54:33.025Z,34.67
2019-01-25T17:57:00.809Z,35.00
2019-01-25T17:59:28.557Z,33.60
2019-01-25T18:01:55.426Z,28.42
2019-01-25T18:04:22.096Z,22.40
2019-01-25T18:06:49.121Z,21.37
2019-01-25T18:09:16.294Z,31.85
2019-01-25T18:11:43.528Z,31.25
2019-01-25T18:14:10.210Z,30.65
2019-01-25T18:16:36.924Z,28.65
2019-01-25T18:19:03.653Z,31.45
2019-01-25T18:21:30.688Z,33.85
2019-01-25T18:23:57.387Z,28.77
2019-01-25T18:26:24.583Z,31.90
2019-01-25T18:28:51.631Z,30.75
2019-01-25T18:31:19.286Z,34.65
2019-01-25T18:33:46.473Z,32.98
2019-01-25T18:36:13.604Z,31.12
2019-01-25T18:38:40.766Z,28.10
2019-01-25T18:41:07.660Z,29.90
2019-01-25T18:43:34.368Z,27.20
2019-01-25T18:46:01.315Z,31.05
2019-01-25T18:48:30.111Z,32.23
2019-01-25T18:50:57.237Z,25.88
2019-01-25T18:53:24.378Z,33.25
2019-01-25T18:55:51.075Z,33.60
2019-01-25T18:58:18.249Z,27.77
2019-01-25T19:00:44.960Z,31.25
2019-01-25T19:03:12.153Z,34.05
2019-01-25T19:05:39.841Z,31.85
2019-01-25T19:08:07.001Z,33.20
2019-01-25T19:10:34.127Z,31.60
2019-01-25T19:13:01.945Z,34.95
2019-01-25T19:15:29.137Z,33.88
2019-01-25T19:17:55.817Z,31.57
2019-01-25T19:20:22.483Z,35.78
2019-01-25T19:22:49.593Z,34.73
2019-01-25T19:25:16.245Z,31.75
2019-01-25T19:27:43.382Z,33.85
2019-01-25T19:30:10.567Z,32.95
2019-01-25T19:32:37.421Z,36.40
2019-01-25T19:35:04.083Z,37.03
2019-01-25T19:37:31.028Z,35.38
2019-01-25T19:39:58.108Z,35.35
2019-01-25T19:42:24.782Z,32.67
2019-01-25T19:44:51.546Z,37.80
2019-01-25T19:47:18.202Z,36.85
2019-01-25T19:49:44.891Z,32.58
2019-01-25T19:52:12.094Z,34.23
2019-01-25T19:54:39.139Z,38.75
2019-01-25T19:57:06.307Z,37.08
2019-01-25T19:59:32.997Z,37.05
2019-01-25T20:01:59.687Z,37.98
2019-01-25T20:04:26.840Z,36.00
2019-01-25T20:06:53.966Z,37.03
2019-01-25T20:09:20.632Z,33.78
2019-01-25T20:11:47.366Z,36.33
2019-01-25T20:14:14.026Z,37.03
2019-01-25T20:16:41.222Z,33.23
2019-01-25T20:19:07.957Z,37.00
2019-01-25T20:21:34.914Z,34.08
2019-01-25T20:24:02.110Z,31.90
2019-01-25T20:26:29.206Z,35.83
2019-01-25T20:28:56.264Z,35.52
2019-01-25T20:31:23.074Z,34.60
2019-01-25T20:33:49.783Z,37.45
2019-01-25T20:36:16.443Z,37.95
2019-01-25T20:38:43.449Z,36.28
2019-01-25T20:41:10.496Z,37.15
2019-01-25T20:43:37.235Z,35.35
2019-01-25T20:46:04.040Z,34.48
2019-01-25T20:48:31.132Z,36.50
2019-01-25T20:50:57.830Z,36.10
2019-01-25T20:53:24.625Z,35.73
2019-01-25T20:55:52.415Z,36.77
2019-01-25T20:58:19.074Z,35.50
2019-01-25T21:00:46.354Z,35.92
2019-01-25T21:03:13.404Z,39.83
2019-01-25T21:05:41.222Z,38.65
2019-01-25T21:08:08.445Z,40.35
2019-01-25T21:10:36.236Z,41.18
2019-01-25T21:13:02.964Z,41.25
2019-01-25T21:15:35.022Z,41.28
2019-01-25T21:17:58.443Z,42.33
2019-01-25T21:20:25.110Z,45.05
2019-01-25T21:22:52.248Z,45.15
2019-01-25T21:25:19.277Z,40.08
2019-01-25T21:27:45.949Z,43.23
2019-01-25T21:30:12.683Z,39.13
2019-01-25T21:32:39.878Z,34.33
2019-01-25T21:35:06.958Z,37.50
2019-01-25T21:37:34.128Z,38.28
2019-01-25T21:40:08.166Z,37.67
2019-01-25T21:42:29.663Z,36.05
2019-01-25T21:44:56.888Z,37.45
2019-01-25T21:47:23.848Z,42.83
2019-01-25T21:49:51.000Z,50.73
2019-01-25T21:52:18.034Z,52.98
2019-01-25T21:54:45.149Z,50.67
2019-01-25T21:57:12.316Z,45.43
2019-01-25T21:59:39.418Z,45.45
2019-01-25T22:02:06.558Z,45.15
2019-01-25T22:04:33.709Z,42.95
2019-01-25T22:07:00.891Z,43.52
2019-01-25T22:09:28.004Z,42.58
2019-01-25T22:11:55.716Z,40.03
2019-01-25T22:14:22.381Z,44.50
2019-01-25T22:16:49.589Z,41.05
2019-01-25T22:19:16.717Z,42.73
2019-01-25T22:21:43.393Z,40.17
2019-01-25T22:24:11.263Z,40.92
2019-01-25T22:26:37.952Z,37.98
2019-01-25T22:29:04.650Z,37.13
2019-01-25T22:31:32.511Z,36.85
2019-01-25T22:33:59.591Z,36.85
2019-01-25T22:36:26.687Z,36.98
2019-01-25T22:38:54.427Z,37.38
2019-01-25T22:41:21.161Z,37.50
2019-01-25T22:43:48.321Z,37.73
2019-01-25T22:46:15.455Z,37.73
2019-01-25T22:48:42.496Z,38.20
2019-01-25T22:51:09.686Z,36.00
2019-01-25T22:53:36.460Z,36.53
2019-01-25T22:56:03.177Z,40.05
2019-01-25T22:58:30.302Z,40.90
2019-01-25T23:00:57.464Z,42.85
2019-01-25T23:03:24.596Z,47.00
2019-01-25T23:05:51.584Z,42.43
2019-01-25T23:08:18.247Z,47.15
2019-01-25T23:10:45.304Z,43.75
2019-01-25T23:13:12.483Z,48.55
2019-01-25T23:15:39.290Z,54.73
2019-01-25T23:18:06.423Z,59.40
2019-01-25T23:20:34.159Z,66.28
2019-01-25T23:23:00.867Z,65.17
2019-01-25T23:25:28.078Z,57.38
2019-01-25T23:27:55.224Z,48.63
2019-01-25T23:30:21.987Z,46.55
2019-01-25T23:32:49.094Z,42.85
2019-01-25T23:35:16.861Z,42.27
2019-01-25T23:37:44.032Z,39.45
2019-01-25T23:40:11.185Z,40.30
2019-01-25T23:42:38.337Z,40.10
2019-01-25T23:45:05.164Z,39.25
2019-01-25T23:47:32.300Z,39.03
2019-01-25T23:49:59.323Z,42.80
2019-01-25T23:52:26.053Z,44.42
2019-01-25T23:54:53.857Z,47.30
2019-01-25T23:57:21.650Z,46.83
2019-01-25T23:59:48.763Z,45.33
